createdAt,value
2023-05-08T00:00:08.834Z,1018.86
2023-05-08T00:05:08.893Z,1018.82
2023-05-08T00:10:08.897Z,1018.89
2023-05-08T00:15:08.905Z,1018.82
2023-05-08T00:20:09.012Z,1018.77
2023-05-08T00:25:08.084Z,1018.7
2023-05-08T00:30:08.235Z,1018.75
2023-05-08T00:35:08.238Z,1018.78
2023-05-08T00:40:08.263Z,1018.8
2023-05-08T00:45:08.369Z,1018.73
2023-05-08T00:50:08.360Z,1018.73
2023-05-08T00:55:08.392Z,1018.76
2023-05-08T01:00:08.441Z,1018.8
2023-05-08T01:05:08.121Z,1018.85
2023-05-08T01:10:08.162Z,1018.78
2023-05-08T01:15:08.335Z,1018.81
2023-05-08T01:20:14.765Z,1018.76
2023-05-08T01:25:08.856Z,1018.71
2023-05-08T01:30:08.927Z,1018.69
2023-05-08T01:35:08.017Z,1018.68
2023-05-08T01:40:08.037Z,1018.74
2023-05-08T01:45:09.489Z,1018.76
2023-05-08T01:50:18.486Z,1018.7
2023-05-08T01:55:08.538Z,1018.83
2023-05-08T02:00:08.564Z,1018.83
2023-05-08T02:05:08.566Z,1018.83
2023-05-08T02:10:08.572Z,1018.81
2023-05-08T02:15:08.598Z,1018.83
2023-05-08T02:20:13.979Z,1018.83
2023-05-08T02:25:08.079Z,1018.95
2023-05-08T02:30:08.099Z,1018.9
2023-05-08T02:35:08.110Z,1018.98
2023-05-08T02:40:08.196Z,1018.98
2023-05-08T02:45:08.186Z,1019.03
2023-05-08T02:50:08.168Z,1018.96
2023-05-08T02:55:08.305Z,1018.98
2023-05-08T03:00:08.356Z,1018.93
2023-05-08T03:05:08.409Z,1018.97
2023-05-08T03:10:08.392Z,1018.94
2023-05-08T03:15:08.450Z,1018.92
2023-05-08T03:20:08.514Z,1018.92
2023-05-08T03:25:08.520Z,1018.99
2023-05-08T03:30:08.597Z,1018.99
2023-05-08T03:35:08.608Z,1019.01
2023-05-08T03:40:08.634Z,1019.01
2023-05-08T03:45:08.639Z,1018.96
2023-05-08T03:50:08.686Z,1018.94
2023-05-08T03:55:08.767Z,1018.94
2023-05-08T04:00:08.824Z,1018.82
2023-05-08T04:05:03.291Z,1018.94
2023-05-08T04:10:05.730Z,1018.96
2023-05-08T04:15:02.956Z,1018.9
2023-05-08T04:20:02.227Z,1018.9
2023-05-08T04:25:02.343Z,1019.02
2023-05-08T04:30:02.423Z,1018.95
2023-05-08T04:35:02.535Z,1018.96
2023-05-08T04:40:03.014Z,1018.96
2023-05-08T04:45:02.479Z,1019.11
2023-05-08T04:50:03.416Z,1019.11
2023-05-08T04:55:02.741Z,1019.02
2023-05-08T05:00:02.924Z,1019.02
2023-05-08T05:05:02.328Z,1019.15
2023-05-08T05:10:02.661Z,1019.15
2023-05-08T05:15:02.826Z,1019.08
2023-05-08T05:20:02.943Z,1019.05
2023-05-08T05:25:02.078Z,1019.07
2023-05-08T05:30:02.906Z,1019.08
2023-05-08T05:35:03.047Z,1019.22
2023-05-08T05:40:02.307Z,1019.25
2023-05-08T05:45:02.628Z,1019.34
2023-05-08T05:50:03.059Z,1019.36
2023-05-08T05:55:02.189Z,1019.45
2023-05-08T06:00:02.429Z,1019.49
2023-05-08T06:05:04.256Z,1019.53
2023-05-08T06:10:02.647Z,1019.62
2023-05-08T06:15:02.919Z,1019.64
2023-05-08T06:20:03.264Z,1019.59
2023-05-08T06:25:02.488Z,1019.6
2023-05-08T06:30:03.318Z,1019.53
2023-05-08T06:35:02.394Z,1019.61
2023-05-08T06:40:12.165Z,1019.62
2023-05-08T06:45:03.253Z,1019.59
2023-05-08T06:50:02.579Z,1019.52
2023-05-08T06:55:02.865Z,1019.51
2023-05-08T07:00:03.137Z,1019.51
2023-05-08T07:05:03.007Z,1019.53
2023-05-08T07:10:02.499Z,1019.58
2023-05-08T07:15:17.852Z,1019.66
2023-05-08T07:20:02.282Z,1019.69
2023-05-08T07:25:02.799Z,1019.62
2023-05-08T07:30:03.111Z,1019.7
2023-05-08T07:35:02.655Z,1019.7
2023-05-08T07:40:02.887Z,1019.65
2023-05-08T07:45:03.093Z,1019.65
2023-05-08T07:50:02.327Z,1019.68
2023-05-08T07:55:02.634Z,1019.62
2023-05-08T08:00:02.921Z,1019.62
2023-05-08T08:05:02.174Z,1019.62
2023-05-08T08:10:02.401Z,1019.67
2023-05-08T08:15:02.782Z,1019.67
2023-05-08T08:20:02.914Z,1019.67
2023-05-08T08:25:03.286Z,1019.63
2023-05-08T08:30:16.271Z,1019.58
2023-05-08T08:35:03.010Z,1019.54
2023-05-08T08:40:02.344Z,1019.61
2023-05-08T08:45:02.612Z,1019.6
2023-05-08T08:50:02.701Z,1019.57
2023-05-08T08:55:02.923Z,1019.57
2023-05-08T09:00:03.259Z,1019.5
2023-05-08T09:05:02.914Z,1019.55
2023-05-08T09:10:03.146Z,1019.52
2023-05-08T09:15:02.553Z,1019.52
2023-05-08T09:20:02.985Z,1019.51
2023-05-08T09:25:02.163Z,1019.5
2023-05-08T09:30:02.680Z,1019.53
2023-05-08T09:35:02.772Z,1019.44
2023-05-08T09:40:03.004Z,1019.45
2023-05-08T09:45:02.235Z,1019.39
2023-05-08T09:50:02.542Z,1019.42
2023-05-08T09:55:03.042Z,1019.46
2023-05-08T10:00:02.207Z,1019.43
2023-05-08T10:05:02.638Z,1019.48
2023-05-08T10:10:02.872Z,1019.46
2023-05-08T10:15:02.435Z,1019.45
2023-05-08T10:20:02.573Z,1019.41
2023-05-08T10:25:03.157Z,1019.46
2023-05-08T10:30:02.487Z,1019.46
2023-05-08T10:35:03.279Z,1019.47
2023-05-08T10:40:02.496Z,1019.37
2023-05-08T10:45:02.648Z,1019.41
2023-05-08T10:50:03.124Z,1019.35
2023-05-08T10:55:02.207Z,1019.34
2023-05-08T11:00:02.417Z,1019.35
2023-05-08T11:05:02.768Z,1019.31
2023-05-08T11:10:03.119Z,1019.24
2023-05-08T11:15:09.565Z,1019.23
2023-05-08T11:20:02.955Z,1019.2
2023-05-08T11:25:02.188Z,1019.1
2023-05-08T11:30:12.440Z,1019.17
2023-05-08T11:35:02.933Z,1019.12
2023-05-08T11:40:02.284Z,1019.11
2023-05-08T11:45:02.878Z,1019.09
2023-05-08T11:50:03.003Z,1019.02
2023-05-08T11:55:02.600Z,1018.94
2023-05-08T12:00:02.722Z,1018.99
2023-05-08T12:05:02.937Z,1018.97
2023-05-08T12:10:02.117Z,1019.09
2023-05-08T12:15:02.487Z,1019.03
2023-05-08T12:20:02.655Z,1019.02
2023-05-08T12:25:02.798Z,1019.02
2023-05-08T12:30:03.082Z,1018.93
2023-05-08T12:35:02.331Z,1018.93
2023-05-08T12:40:02.566Z,1018.99
2023-05-08T12:45:02.756Z,1019.12
2023-05-08T12:50:02.885Z,1019.02
2023-05-08T12:55:03.121Z,1018.94
2023-05-08T13:00:04.505Z,1018.94
2023-05-08T13:05:03.081Z,1018.97
2023-05-08T13:10:02.153Z,1018.95
2023-05-08T13:15:02.325Z,1018.95
2023-05-08T13:20:10.629Z,1018.95
2023-05-08T13:25:02.793Z,1018.85
2023-05-08T13:30:02.974Z,1018.75
2023-05-08T13:35:01.975Z,1018.67
2023-05-08T13:40:02.099Z,1018.67
2023-05-08T13:45:02.419Z,1018.54
2023-05-08T13:50:02.622Z,1018.57
2023-05-08T13:55:02.819Z,1018.55
2023-05-08T14:00:02.904Z,1018.55
2023-05-08T14:05:03.037Z,1018.54
2023-05-08T14:10:02.177Z,1018.44
2023-05-08T14:15:02.294Z,1018.46
2023-05-08T14:20:02.488Z,1018.49
2023-05-08T14:25:02.563Z,1018.4
2023-05-08T14:30:02.708Z,1018.39
2023-05-08T14:35:02.885Z,1018.39
2023-05-08T14:40:03.071Z,1018.43
2023-05-08T14:45:02.242Z,1018.39
2023-05-08T14:50:02.491Z,1018.34
2023-05-08T14:55:02.721Z,1018.31
2023-05-08T15:00:02.987Z,1018.23
2023-05-08T15:05:03.195Z,1018.21
2023-05-08T15:10:02.160Z,1018.2
2023-05-08T15:15:04.374Z,1018.2
2023-05-08T15:20:02.816Z,1018.19
2023-05-08T15:25:02.904Z,1018.3
2023-05-08T15:30:03.109Z,1018.25
2023-05-08T15:35:02.225Z,1018.17
2023-05-08T15:40:02.373Z,1018.11
2023-05-08T15:45:02.620Z,1018.11
2023-05-08T15:50:02.710Z,1018.06
2023-05-08T15:55:02.832Z,1017.92
2023-05-08T16:00:02.969Z,1017.92
2023-05-08T16:05:02.085Z,1018.05
2023-05-08T16:10:02.424Z,1018.04
2023-05-08T16:15:02.811Z,1018.07
2023-05-08T16:20:03.079Z,1018.07
2023-05-08T16:25:02.273Z,1018.0
2023-05-08T16:30:02.359Z,1017.89
2023-05-08T16:35:02.781Z,1017.95
2023-05-08T16:40:02.956Z,1017.95
2023-05-08T16:45:02.025Z,1017.9
2023-05-08T16:50:02.115Z,1017.76
2023-05-08T16:55:02.230Z,1017.73
2023-05-08T17:00:02.254Z,1017.73
2023-05-08T17:05:02.401Z,1017.78
2023-05-08T17:10:02.550Z,1017.82
2023-05-08T17:15:02.739Z,1017.76
2023-05-08T17:20:02.810Z,1017.72
2023-05-08T17:25:02.973Z,1017.71
2023-05-08T17:30:02.088Z,1017.75
2023-05-08T17:35:02.228Z,1017.75
2023-05-08T17:40:02.694Z,1017.77
2023-05-08T17:45:02.758Z,1017.84
2023-05-08T17:50:02.875Z,1017.84
2023-05-08T17:55:03.062Z,1017.96
2023-05-08T18:00:02.168Z,1017.89
2023-05-08T18:05:02.312Z,1017.88
2023-05-08T18:10:02.653Z,1017.91
2023-05-08T18:15:02.777Z,1017.91
2023-05-08T18:20:02.939Z,1017.99
2023-05-08T18:25:02.121Z,1017.94
2023-05-08T18:30:02.342Z,1017.97
2023-05-08T18:35:02.554Z,1018.04
2023-05-08T18:40:02.699Z,1018.06
2023-05-08T18:45:02.787Z,1017.97
2023-05-08T18:50:02.910Z,1018.01
2023-05-08T18:55:03.036Z,1017.92
2023-05-08T19:00:02.159Z,1017.96
2023-05-08T19:05:02.322Z,1017.91
2023-05-08T19:10:02.421Z,1017.9
2023-05-08T19:15:02.577Z,1017.92
2023-05-08T19:20:02.691Z,1017.84
2023-05-08T19:25:02.848Z,1017.87
2023-05-08T19:30:03.150Z,1017.93
2023-05-08T19:35:02.420Z,1018.0
2023-05-08T19:40:02.596Z,1018.0
2023-05-08T19:45:02.791Z,1017.91
2023-05-08T19:50:02.902Z,1017.89
2023-05-08T19:55:03.105Z,1017.9
2023-05-08T20:00:02.298Z,1017.81
2023-05-08T20:10:02.404Z,1017.67
2023-05-08T20:15:02.406Z,1017.72
2023-05-08T20:20:02.598Z,1017.73
2023-05-08T20:25:04.620Z,1017.76
2023-05-08T20:30:02.123Z,1017.74
2023-05-08T20:35:02.309Z,1017.72
2023-05-08T20:40:02.406Z,1017.69
2023-05-08T20:45:02.657Z,1017.71
2023-05-08T20:50:02.823Z,1017.74
2023-05-08T20:55:02.987Z,1017.63
2023-05-08T21:00:02.201Z,1017.64
2023-05-08T21:05:15.457Z,1017.65
2023-05-08T21:10:08.649Z,1017.6
2023-05-08T21:15:08.660Z,1017.6
2023-05-08T21:20:08.680Z,1017.67
2023-05-08T21:25:08.683Z,1017.57
2023-05-08T21:30:08.682Z,1017.59
2023-05-08T21:35:08.669Z,1017.51
2023-05-08T21:40:08.682Z,1017.43
2023-05-08T21:45:08.688Z,1017.48
2023-05-08T21:50:08.720Z,1017.41
2023-05-08T21:55:08.844Z,1017.41
2023-05-08T22:00:08.945Z,1017.28
2023-05-08T22:05:07.997Z,1017.3
2023-05-08T22:10:08.008Z,1017.2
2023-05-08T22:15:15.059Z,1017.2
2023-05-08T22:20:07.981Z,1017.16
2023-05-08T22:25:07.985Z,1017.21
2023-05-08T22:30:07.974Z,1017.18
2023-05-08T22:35:07.981Z,1017.18
2023-05-08T22:40:07.999Z,1017.0
2023-05-08T22:45:08.011Z,1017.03
2023-05-08T22:50:08.044Z,1016.97
2023-05-08T22:55:08.072Z,1016.97
2023-05-08T23:01:14.633Z,1016.88
2023-05-08T23:05:08.677Z,1016.83
2023-05-08T23:10:08.281Z,1016.71
2023-05-08T23:15:08.293Z,1016.71
2023-05-08T23:20:08.296Z,1016.62
2023-05-08T23:25:08.374Z,1016.67
2023-05-08T23:30:08.381Z,1016.49
2023-05-08T23:35:08.400Z,1016.49
2023-05-08T23:40:08.441Z,1016.39
2023-05-08T23:45:08.477Z,1016.38
2023-05-08T23:50:08.552Z,1016.32
2023-05-08T23:55:08.610Z,1016.32
